createdAt,value
2023-01-06T06:17:46.150Z,11.91
2023-01-06T06:27:46.278Z,14.28
2023-01-06T06:37:46.343Z,13.12
2023-01-06T06:47:46.154Z,13.32
2023-01-06T06:57:46.268Z,12.01
2023-01-06T07:07:46.330Z,14.19
2023-01-06T07:17:46.414Z,16.37
2023-01-06T07:27:46.242Z,19.26
2023-01-06T07:37:46.426Z,16.70
2023-01-06T07:47:46.412Z,17.15
2023-01-06T07:57:46.164Z,13.83
2023-01-06T08:07:46.217Z,15.03
2023-01-06T08:17:46.344Z,16.51
2023-01-06T08:27:46.108Z,15.74
2023-01-06T08:37:46.422Z,19.73
2023-01-06T08:47:46.516Z,16.19
2023-01-06T08:57:46.206Z,18.66
2023-01-06T09:07:46.347Z,20.70
2023-01-06T09:17:46.300Z,18.03
2023-01-06T09:27:46.373Z,19.74
2023-01-06T09:37:46.290Z,20.94
2023-01-06T09:47:46.254Z,19.51
2023-01-06T09:57:46.201Z,21.40
2023-01-06T10:07:46.270Z,22.03
2023-01-06T10:17:46.246Z,19.25
2023-01-06T10:27:46.312Z,19.14
2023-01-06T10:37:46.181Z,20.83
2023-01-06T10:47:46.344Z,21.09
2023-01-06T10:57:46.314Z,18.50
2023-01-06T11:07:46.414Z,20.83
2023-01-06T11:17:46.374Z,21.20
2023-01-06T11:27:46.400Z,18.91
2023-01-06T11:37:46.264Z,18.03
2023-01-06T11:47:46.252Z,19.52
2023-01-06T11:57:46.283Z,21.84
2023-01-06T12:07:46.352Z,25.68
2023-01-06T12:17:46.258Z,22.59
2023-01-06T12:27:46.122Z,22.82
2023-01-06T12:37:46.345Z,20.65
2023-01-06T12:47:46.416Z,21.32
2023-01-06T12:57:46.225Z,21.78
2023-01-06T13:07:46.339Z,24.39
2023-01-06T13:17:46.300Z,20.17
2023-01-06T13:27:46.152Z,20.90
2023-01-06T13:37:46.230Z,22.33
2023-01-06T13:47:46.197Z,20.54
2023-01-06T13:57:46.240Z,17.59
2023-01-06T14:07:46.421Z,14.25
2023-01-06T14:17:46.385Z,14.35
2023-01-06T14:27:46.349Z,10.81
2023-01-06T14:37:46.313Z,9.08
2023-01-06T14:47:46.367Z,9.96
2023-01-06T14:57:46.431Z,9.54
2023-01-06T15:07:46.559Z,8.31
2023-01-06T15:17:46.581Z,5.53
2023-01-06T15:27:48.257Z,3.48
2023-01-06T15:37:46.623Z,6.95
2023-01-06T15:47:46.563Z,7.63
2023-01-06T15:57:46.523Z,9.69
2023-01-06T16:07:46.701Z,9.35
2023-01-06T16:17:46.443Z,10.60
2023-01-06T16:27:46.625Z,7.31
2023-01-06T16:37:46.478Z,7.06
2023-01-06T16:47:46.486Z,5.09
2023-01-06T16:57:46.511Z,4.34
2023-01-06T17:07:46.688Z,5.80
2023-01-06T17:17:46.653Z,7.33
2023-01-06T17:27:46.721Z,8.36
2023-01-06T17:37:46.572Z,8.60
2023-01-06T17:47:46.643Z,5.67
2023-01-06T17:57:47.416Z,7.20
2023-01-06T18:07:46.679Z,7.85
2023-01-06T18:17:46.757Z,6.36
2023-01-06T18:27:46.606Z,4.53
2023-01-06T18:37:46.664Z,6.57
2023-01-06T18:47:46.630Z,5.61
2023-01-06T18:57:46.682Z,6.90
2023-01-06T19:07:46.647Z,6.55
2023-01-06T19:17:46.701Z,6.06
